Los Angeles, California
Traffic Map
Current Weather Conditions
Los Angeles, California
Clear
Clear
73°
Feels Like: 73°
Wind Chill: 73° Ceiling: Unl
Heat Index: 73° Visibility: 10mi
Dew Point: 63° Wind: 0mph
Humidity: 71% Direction: ° ()
Pressure: 29.96in Gusts: 0mph
Raw Report DataKCQT 301447Z AUTO 00000KT 10SM CLR 23/17 A2996 RMK AO2 SLP141 T02280172 53009
Traffic Incident Summary
Active as of:
Severity:
Category:
InformationThere was an issue retrieving the traffic information for this location. Please try a different location or try again shortly.
Advertisements
Track Severe Weather on mobile